createdAt,value
2023-03-16T00:02:13.129Z,7.15
2023-03-16T00:04:41.384Z,8.57
2023-03-16T00:07:11.333Z,10.10
2023-03-16T00:09:40.997Z,6.57
2023-03-16T00:12:16.671Z,8.05
2023-03-16T00:14:46.057Z,7.30
2023-03-16T00:17:20.092Z,5.95
2023-03-16T00:19:51.665Z,6.00
2023-03-16T00:22:19.870Z,7.10
2023-03-16T00:24:48.249Z,10.82
2023-03-16T00:27:17.367Z,7.63
2023-03-16T00:29:47.549Z,8.48
2023-03-16T00:32:18.520Z,6.80
2023-03-16T00:34:48.130Z,5.57
2023-03-16T00:37:18.024Z,7.40
2023-03-16T00:39:47.563Z,5.72
2023-03-16T00:42:17.333Z,6.10
2023-03-16T00:44:46.058Z,10.88
2023-03-16T00:47:15.453Z,8.55
2023-03-16T00:49:45.958Z,5.97
2023-03-16T00:52:15.692Z,6.65
2023-03-16T00:54:47.618Z,6.38
2023-03-16T00:57:18.906Z,7.15
2023-03-16T00:59:48.602Z,6.30
2023-03-16T01:02:20.009Z,7.45
2023-03-16T01:04:49.615Z,6.63
2023-03-16T01:07:17.810Z,4.50
2023-03-16T01:09:46.102Z,6.93
2023-03-16T01:12:16.619Z,6.80
2023-03-16T01:14:46.904Z,6.00
2023-03-16T01:17:16.442Z,8.05
2023-03-16T01:19:45.627Z,5.15
2023-03-16T01:22:16.051Z,5.47
2023-03-16T01:24:46.800Z,4.93
2023-03-16T01:27:15.445Z,4.78
2023-03-16T01:29:44.722Z,4.18
2023-03-16T01:32:13.790Z,5.28
2023-03-16T01:34:42.618Z,5.35
2023-03-16T01:37:14.365Z,6.63
2023-03-16T01:39:57.151Z,6.28
2023-03-16T01:42:25.524Z,8.73
2023-03-16T01:44:56.287Z,7.55
2023-03-16T01:47:29.810Z,6.13
2023-03-16T01:49:58.544Z,8.85
2023-03-16T01:52:34.984Z,7.10
2023-03-16T01:55:08.013Z,8.25
2023-03-16T01:57:39.893Z,7.65
2023-03-16T02:00:15.593Z,7.07
2023-03-16T02:02:49.648Z,6.57
2023-03-16T02:05:33.447Z,5.35
2023-03-16T02:08:05.201Z,5.57
2023-03-16T02:10:34.564Z,5.82
2023-03-16T02:13:03.692Z,4.55
2023-03-16T02:15:32.445Z,7.88
2023-03-16T02:18:01.118Z,4.50
2023-03-16T02:20:38.756Z,10.23
2023-03-16T02:23:18.513Z,7.47
2023-03-16T02:25:58.773Z,5.50
2023-03-16T02:28:35.316Z,7.03
2023-03-16T02:31:06.082Z,5.45
2023-03-16T02:33:35.745Z,4.45
2023-03-16T02:36:09.912Z,5.53
2023-03-16T02:38:39.579Z,4.07
2023-03-16T02:41:13.714Z,4.10
2023-03-16T02:43:45.116Z,3.28
2023-03-16T02:46:30.263Z,3.22
2023-03-16T02:49:04.261Z,4.00
2023-03-16T02:51:33.162Z,4.50
2023-03-16T02:54:01.432Z,3.58
2023-03-16T02:56:32.070Z,3.25
2023-03-16T02:59:00.310Z,5.15
2023-03-16T03:01:31.856Z,8.43
2023-03-16T03:04:00.039Z,6.00
2023-03-16T03:06:32.353Z,6.13
2023-03-16T03:09:02.104Z,7.20
2023-03-16T03:11:33.340Z,5.10
2023-03-16T03:14:01.633Z,4.95
2023-03-16T03:16:32.631Z,5.80
2023-03-16T03:19:03.172Z,8.70
2023-03-16T03:21:36.432Z,6.75
2023-03-16T03:24:05.466Z,6.50
2023-03-16T03:26:35.725Z,8.98
2023-03-16T03:29:06.185Z,7.15
2023-03-16T03:31:37.174Z,8.38
2023-03-16T03:34:06.809Z,6.22
2023-03-16T03:36:36.954Z,8.23
2023-03-16T03:39:07.857Z,6.07
2023-03-16T03:41:37.260Z,6.60
2023-03-16T03:44:07.580Z,8.93
2023-03-16T03:46:38.328Z,7.50
2023-03-16T03:49:06.606Z,6.85
2023-03-16T03:51:36.589Z,5.40
2023-03-16T03:54:14.751Z,4.85
2023-03-16T03:56:42.891Z,6.50
2023-03-16T03:59:15.656Z,10.27
2023-03-16T04:02:08.548Z,6.63
2023-03-16T04:04:51.306Z,5.45
2023-03-16T04:07:19.597Z,7.70
2023-03-16T04:09:48.528Z,6.38
2023-03-16T04:12:31.306Z,7.40
2023-03-16T04:14:59.857Z,6.07
2023-03-16T04:17:35.319Z,8.95
2023-03-16T04:20:13.007Z,7.63
2023-03-16T04:22:42.547Z,5.50
2023-03-16T04:25:11.842Z,6.85
2023-03-16T04:27:41.366Z,8.52
2023-03-16T04:30:13.171Z,7.53
2023-03-16T04:32:47.078Z,5.47
2023-03-16T04:35:20.338Z,5.82
2023-03-16T04:37:52.478Z,6.28
2023-03-16T04:40:26.353Z,7.45
2023-03-16T04:43:03.487Z,7.13
2023-03-16T04:45:34.244Z,4.65
2023-03-16T04:48:03.856Z,6.03
2023-03-16T04:50:32.216Z,5.78
2023-03-16T04:53:09.526Z,8.98
2023-03-16T04:55:38.176Z,6.63
2023-03-16T04:58:06.555Z,4.65
2023-03-16T05:00:39.116Z,7.80
2023-03-16T05:03:14.239Z,5.63
2023-03-16T05:05:43.290Z,6.20
2023-03-16T05:08:12.741Z,5.68
2023-03-16T05:10:44.745Z,7.28
2023-03-16T05:13:13.214Z,6.13
2023-03-16T05:15:41.584Z,6.43
2023-03-16T05:18:20.365Z,5.47
2023-03-16T05:20:51.991Z,7.80
2023-03-16T05:23:20.763Z,5.03
2023-03-16T05:25:54.511Z,5.47
2023-03-16T05:28:25.367Z,6.80
2023-03-16T05:30:59.535Z,10.13
2023-03-16T05:33:30.625Z,8.10
2023-03-16T05:36:05.587Z,8.73
2023-03-16T05:38:36.843Z,5.60
2023-03-16T05:41:06.414Z,9.50
2023-03-16T05:43:53.318Z,10.38
2023-03-16T05:46:23.808Z,9.65
2023-03-16T05:48:54.716Z,7.47
2023-03-16T05:51:26.420Z,6.13
2023-03-16T05:53:57.434Z,7.90
2023-03-16T05:56:43.300Z,8.05
2023-03-16T05:59:11.716Z,8.73
2023-03-16T06:01:41.131Z,8.65
2023-03-16T06:04:12.800Z,6.10
2023-03-16T06:06:46.627Z,7.85
2023-03-16T06:09:23.846Z,6.95
2023-03-16T06:12:02.922Z,5.57
2023-03-16T06:14:34.888Z,6.18
2023-03-16T06:17:03.534Z,7.97
2023-03-16T06:19:33.963Z,6.68
2023-03-16T06:22:06.834Z,7.78
2023-03-16T06:24:35.433Z,6.50
2023-03-16T06:27:04.230Z,6.13
2023-03-16T06:29:38.501Z,5.28
2023-03-16T06:32:07.017Z,11.13
2023-03-16T06:34:38.231Z,7.20
2023-03-16T06:37:07.669Z,6.70
2023-03-16T06:39:36.102Z,7.68
2023-03-16T06:42:05.492Z,7.97
2023-03-16T06:44:34.585Z,16.05
2023-03-16T06:47:10.492Z,8.27
2023-03-16T06:49:43.032Z,10.73
2023-03-16T06:52:18.036Z,7.82
2023-03-16T06:54:46.790Z,8.93
2023-03-16T06:57:16.656Z,6.25
2023-03-16T06:59:45.018Z,6.65
2023-03-16T07:02:15.031Z,8.13
2023-03-16T07:04:45.122Z,6.57
2023-03-16T07:07:13.892Z,9.73
2023-03-16T07:09:42.178Z,8.00
2023-03-16T07:12:11.345Z,7.85
2023-03-16T07:14:39.653Z,8.02
2023-03-16T07:17:10.599Z,9.25
2023-03-16T07:19:38.847Z,7.47
2023-03-16T07:22:08.675Z,9.75
2023-03-16T07:24:39.926Z,7.90
2023-03-16T07:27:08.189Z,6.65
2023-03-16T07:29:37.327Z,11.80
2023-03-16T07:32:06.491Z,6.90
2023-03-16T07:34:39.258Z,8.27
2023-03-16T07:37:10.237Z,8.05
2023-03-16T07:39:39.055Z,7.20
2023-03-16T07:42:12.495Z,5.35
2023-03-16T07:44:52.074Z,11.20
2023-03-16T07:47:21.130Z,7.43
2023-03-16T07:49:50.885Z,5.15
2023-03-16T07:52:20.811Z,6.30
2023-03-16T07:54:49.918Z,6.10
2023-03-16T07:57:19.726Z,7.75
2023-03-16T07:59:48.909Z,5.57
2023-03-16T08:02:21.650Z,7.15
2023-03-16T08:04:50.645Z,5.75
2023-03-16T08:07:20.845Z,6.22
2023-03-16T08:10:01.368Z,14.40
2023-03-16T08:12:55.976Z,6.38
2023-03-16T08:15:25.132Z,11.32
2023-03-16T08:18:00.357Z,6.50
2023-03-16T08:20:29.236Z,10.00
2023-03-16T08:22:59.035Z,8.73
2023-03-16T08:25:31.502Z,7.10
2023-03-16T08:28:13.090Z,7.15
2023-03-16T08:30:47.066Z,9.55
2023-03-16T08:33:26.031Z,10.68
2023-03-16T08:35:54.888Z,11.45
2023-03-16T08:38:25.331Z,10.55
2023-03-16T08:40:53.796Z,8.90
2023-03-16T08:43:24.037Z,5.70
2023-03-16T08:45:53.870Z,9.77
2023-03-16T08:48:25.986Z,8.63
2023-03-16T08:50:54.276Z,10.50
2023-03-16T08:53:24.126Z,8.60
2023-03-16T08:55:52.764Z,10.80
2023-03-16T08:58:21.016Z,9.20
2023-03-16T09:00:52.093Z,10.00
2023-03-16T09:03:23.385Z,9.67
2023-03-16T09:05:51.629Z,13.60
2023-03-16T09:08:20.118Z,10.00
2023-03-16T09:10:52.009Z,10.30
2023-03-16T09:13:20.213Z,7.97
2023-03-16T09:15:48.473Z,9.33
2023-03-16T09:18:18.544Z,5.60
2023-03-16T09:20:49.959Z,7.13
2023-03-16T09:23:18.554Z,9.30
2023-03-16T09:25:49.339Z,8.77
2023-03-16T09:28:21.007Z,6.53
2023-03-16T09:30:50.943Z,6.80
2023-03-16T09:33:19.193Z,7.73
2023-03-16T09:35:47.502Z,7.07
2023-03-16T09:38:16.085Z,7.27
2023-03-16T09:40:46.693Z,8.17
2023-03-16T09:43:30.954Z,6.70
2023-03-16T09:46:06.610Z,7.40
2023-03-16T09:48:37.396Z,7.47
2023-03-16T09:51:08.882Z,9.30
2023-03-16T09:53:40.148Z,5.40
2023-03-16T09:56:13.598Z,7.07
2023-03-16T09:58:43.942Z,7.30
2023-03-16T10:01:19.497Z,7.03
2023-03-16T10:04:03.020Z,6.70
2023-03-16T10:06:33.149Z,9.73
2023-03-16T10:09:16.192Z,7.40
2023-03-16T10:11:48.203Z,9.70
2023-03-16T10:14:26.105Z,8.53
2023-03-16T10:16:59.269Z,7.33
2023-03-16T10:19:38.496Z,7.13
2023-03-16T10:22:18.659Z,6.90
2023-03-16T10:24:56.916Z,6.13
2023-03-16T10:27:30.372Z,5.33
2023-03-16T10:30:01.866Z,5.17
2023-03-16T10:32:34.672Z,4.17
2023-03-16T10:35:12.399Z,6.00
2023-03-16T10:37:40.684Z,5.60
2023-03-16T10:40:12.504Z,5.10
2023-03-16T10:42:41.645Z,5.33
2023-03-16T10:45:25.439Z,6.27
2023-03-16T10:47:53.782Z,5.77
2023-03-16T10:50:27.810Z,5.57
2023-03-16T10:52:59.379Z,5.90
2023-03-16T10:55:32.594Z,6.53
2023-03-16T10:58:01.445Z,5.57
2023-03-16T11:00:36.434Z,4.70
2023-03-16T11:03:22.868Z,4.50
2023-03-16T11:05:58.780Z,6.23
2023-03-16T11:08:28.528Z,6.03
2023-03-16T11:10:59.053Z,5.97
2023-03-16T11:13:34.575Z,4.87
2023-03-16T11:16:12.987Z,4.70
2023-03-16T11:18:47.730Z,4.70
2023-03-16T11:21:22.297Z,4.40
2023-03-16T11:23:58.216Z,6.00
2023-03-16T11:26:34.011Z,5.60
2023-03-16T11:29:09.476Z,5.10
2023-03-16T11:31:49.543Z,4.27
2023-03-16T11:34:19.455Z,4.63
2023-03-16T11:36:55.050Z,4.10
2023-03-16T11:39:33.508Z,6.83
2023-03-16T11:42:25.162Z,3.90
2023-03-16T11:45:01.703Z,3.40
2023-03-16T11:48:05.512Z,4.60
2023-03-16T11:50:43.021Z,3.70
2023-03-16T11:53:18.674Z,5.70
2023-03-16T11:55:56.224Z,4.20
2023-03-16T11:58:43.151Z,5.20
2023-03-16T12:01:22.462Z,5.07
2023-03-16T12:04:20.612Z,3.70
2023-03-16T12:07:02.228Z,5.10
2023-03-16T12:10:03.629Z,4.43
2023-03-16T12:12:40.761Z,3.70
2023-03-16T12:15:31.001Z,4.07
2023-03-16T12:18:06.273Z,4.00
2023-03-16T12:20:45.787Z,4.93
2023-03-16T12:23:22.819Z,4.00
2023-03-16T12:25:52.383Z,3.83
2023-03-16T12:28:26.185Z,3.90
2023-03-16T12:31:06.174Z,5.03
2023-03-16T12:33:54.994Z,6.50
2023-03-16T12:36:40.312Z,5.77
2023-03-16T12:39:14.533Z,4.27
2023-03-16T12:41:53.294Z,4.60
2023-03-16T12:44:27.484Z,5.67
2023-03-16T12:47:00.497Z,3.33
2023-03-16T12:49:34.261Z,4.63
2023-03-16T12:52:05.846Z,5.07
2023-03-16T12:54:35.467Z,5.33
2023-03-16T12:57:05.623Z,5.10
2023-03-16T12:59:41.659Z,3.40
2023-03-16T13:02:17.176Z,3.00
2023-03-16T13:04:51.190Z,2.87
2023-03-16T13:07:24.695Z,5.50
2023-03-16T13:10:12.615Z,4.73
2023-03-16T13:12:41.935Z,3.80
2023-03-16T13:15:32.368Z,3.97
2023-03-16T13:18:24.956Z,4.03
2023-03-16T13:21:02.443Z,4.93
2023-03-16T13:23:58.736Z,3.00
2023-03-16T13:26:41.489Z,2.80
2023-03-16T13:29:23.164Z,5.00
2023-03-16T13:31:53.043Z,5.40
2023-03-16T13:34:23.792Z,3.40
2023-03-16T13:36:58.060Z,3.67
2023-03-16T13:39:31.590Z,3.90
2023-03-16T13:42:03.716Z,5.00
2023-03-16T13:44:33.225Z,5.20
2023-03-16T13:47:05.561Z,2.10
2023-03-16T13:49:44.359Z,2.93
2023-03-16T13:52:17.969Z,3.37
2023-03-16T13:54:48.107Z,4.70
2023-03-16T13:57:18.850Z,3.90
2023-03-16T13:59:47.240Z,2.80
2023-03-16T14:02:19.476Z,2.90
2023-03-16T14:04:48.411Z,2.50
2023-03-16T14:07:18.972Z,3.00
2023-03-16T14:09:49.944Z,4.17
2023-03-16T14:12:20.034Z,3.53
2023-03-16T14:14:51.026Z,2.60
2023-03-16T14:17:21.605Z,3.97
2023-03-16T14:19:51.559Z,3.40
2023-03-16T14:22:21.862Z,3.03
2023-03-16T14:24:59.254Z,3.57
2023-03-16T14:27:32.914Z,3.13
2023-03-16T14:30:03.054Z,3.97
2023-03-16T14:32:33.610Z,4.33
2023-03-16T14:35:13.046Z,3.17
2023-03-16T14:37:42.297Z,3.00
2023-03-16T14:40:25.382Z,3.77
2023-03-16T14:42:56.054Z,4.73
2023-03-16T14:45:33.274Z,4.27
2023-03-16T14:48:07.584Z,2.87
2023-03-16T14:50:37.439Z,3.20
2023-03-16T14:53:06.968Z,4.43
2023-03-16T14:55:37.664Z,3.00
2023-03-16T14:58:06.836Z,4.00
2023-03-16T15:00:50.231Z,4.80
2023-03-16T15:03:24.002Z,3.80
2023-03-16T15:05:54.840Z,3.30
2023-03-16T15:08:28.640Z,3.50
2023-03-16T15:11:00.993Z,3.07
2023-03-16T15:13:53.480Z,2.97
2023-03-16T15:16:23.268Z,2.87
2023-03-16T15:18:51.972Z,3.17
2023-03-16T15:21:24.274Z,3.07
2023-03-16T15:23:58.562Z,3.13
2023-03-16T15:26:30.716Z,2.67
2023-03-16T15:29:02.486Z,2.47
2023-03-16T15:31:31.024Z,2.30
2023-03-16T15:33:59.273Z,2.40
2023-03-16T15:36:27.490Z,2.40
2023-03-16T15:38:56.929Z,2.40
2023-03-16T15:41:30.085Z,3.80
2023-03-16T15:44:03.324Z,4.20
2023-03-16T15:46:31.766Z,3.10
2023-03-16T15:49:00.078Z,2.77
2023-03-16T15:51:30.774Z,2.83
2023-03-16T15:54:04.775Z,2.63
2023-03-16T15:56:47.189Z,2.73
2023-03-16T15:59:23.913Z,2.97
2023-03-16T16:01:53.007Z,3.30
2023-03-16T16:04:23.688Z,2.73
2023-03-16T16:06:55.138Z,3.80
2023-03-16T16:09:23.697Z,3.90
2023-03-16T16:11:51.973Z,4.47
2023-03-16T16:14:25.971Z,4.37
2023-03-16T16:16:55.770Z,2.87
2023-03-16T16:19:24.083Z,5.53
2023-03-16T16:21:52.752Z,3.33
2023-03-16T16:24:21.017Z,3.67
2023-03-16T16:26:54.396Z,3.13
2023-03-16T16:29:32.001Z,4.30
2023-03-16T16:32:00.490Z,3.20
2023-03-16T16:34:29.316Z,4.32
2023-03-16T16:36:58.498Z,3.77
2023-03-16T16:39:28.948Z,3.15
2023-03-16T16:41:59.682Z,3.00
2023-03-16T16:44:34.028Z,2.67
2023-03-16T16:47:03.670Z,3.55
2023-03-16T16:49:35.255Z,4.23
2023-03-16T16:52:03.757Z,2.47
2023-03-16T16:54:33.519Z,3.17
2023-03-16T16:57:05.272Z,3.22
2023-03-16T16:59:38.279Z,2.97
2023-03-16T17:02:22.823Z,2.80
2023-03-16T17:04:51.891Z,3.13
2023-03-16T17:07:20.736Z,2.30
2023-03-16T17:09:49.297Z,2.75
2023-03-16T17:12:21.495Z,3.13
2023-03-16T17:14:51.720Z,3.08
2023-03-16T17:17:21.609Z,2.40
2023-03-16T17:19:50.218Z,2.30
2023-03-16T17:22:24.493Z,3.70
2023-03-16T17:24:53.426Z,3.67
2023-03-16T17:27:26.242Z,2.50
2023-03-16T17:29:57.073Z,3.35
2023-03-16T17:32:25.728Z,2.70
2023-03-16T17:34:54.453Z,2.47
2023-03-16T17:37:23.354Z,4.10
2023-03-16T17:39:52.477Z,3.47
2023-03-16T17:42:23.147Z,4.13
2023-03-16T17:44:52.830Z,2.92
2023-03-16T17:47:24.750Z,2.22
2023-03-16T17:49:57.095Z,3.50
2023-03-16T17:52:26.888Z,3.15
2023-03-16T17:54:56.087Z,6.13
2023-03-16T17:57:29.472Z,3.10
2023-03-16T17:59:58.048Z,2.65
2023-03-16T18:02:45.596Z,2.20
2023-03-16T18:05:18.958Z,3.25
2023-03-16T18:07:48.228Z,2.88
2023-03-16T18:10:17.997Z,2.55
2023-03-16T18:12:54.435Z,2.42
2023-03-16T18:15:24.877Z,2.72
2023-03-16T18:17:54.764Z,2.78
2023-03-16T18:20:27.729Z,2.95
2023-03-16T18:23:03.276Z,3.00
2023-03-16T18:25:34.406Z,3.83
2023-03-16T18:28:02.822Z,3.03
2023-03-16T18:30:35.569Z,3.03
2023-03-16T18:33:08.381Z,3.15
2023-03-16T18:35:38.455Z,5.50
2023-03-16T18:38:17.796Z,3.58
2023-03-16T18:40:47.497Z,3.05
2023-03-16T18:43:18.293Z,4.30
2023-03-16T18:45:47.863Z,2.00
2023-03-16T18:48:26.520Z,3.20
2023-03-16T18:50:56.515Z,3.83
2023-03-16T18:53:26.084Z,4.20
2023-03-16T18:55:57.230Z,3.70
2023-03-16T18:58:25.975Z,4.80
2023-03-16T19:00:57.054Z,3.20
2023-03-16T19:03:49.918Z,3.00
2023-03-16T19:06:29.541Z,3.13
2023-03-16T19:09:03.933Z,2.90
2023-03-16T19:11:33.348Z,2.40
2023-03-16T19:14:02.248Z,3.88
2023-03-16T19:16:30.588Z,3.97
2023-03-16T19:19:00.827Z,4.80
2023-03-16T19:21:29.888Z,4.00
2023-03-16T19:24:02.507Z,3.65
2023-03-16T19:26:33.404Z,4.05
2023-03-16T19:29:03.268Z,4.57
2023-03-16T19:31:34.884Z,3.35
2023-03-16T19:34:16.338Z,3.35
2023-03-16T19:36:45.059Z,5.75
2023-03-16T19:39:15.156Z,4.55
2023-03-16T19:41:44.845Z,2.92
2023-03-16T19:44:17.488Z,5.82
2023-03-16T19:46:49.031Z,4.15
2023-03-16T19:49:20.251Z,4.63
2023-03-16T19:51:49.093Z,5.78
2023-03-16T19:54:23.314Z,3.65
2023-03-16T19:56:55.942Z,3.38
2023-03-16T19:59:27.983Z,3.25
2023-03-16T20:01:57.180Z,4.20
2023-03-16T20:04:27.768Z,2.90
2023-03-16T20:06:56.212Z,3.63
2023-03-16T20:09:24.439Z,3.28
2023-03-16T20:11:52.685Z,3.47
2023-03-16T20:14:30.248Z,4.40
2023-03-16T20:16:59.033Z,4.05
2023-03-16T20:19:29.706Z,3.83
2023-03-16T20:21:57.949Z,5.75
2023-03-16T20:24:26.261Z,5.25
2023-03-16T20:26:55.070Z,4.07
2023-03-16T20:29:29.487Z,3.83
2023-03-16T20:31:58.267Z,3.20
2023-03-16T20:34:32.172Z,2.75
2023-03-16T20:37:01.230Z,3.03
2023-03-16T20:39:29.617Z,3.17
2023-03-16T20:41:58.411Z,3.50
2023-03-16T20:44:29.524Z,3.13
2023-03-16T20:46:57.854Z,3.10
2023-03-16T20:49:32.855Z,3.67
2023-03-16T20:52:01.244Z,3.80
2023-03-16T20:54:29.471Z,3.15
2023-03-16T20:56:57.692Z,3.60
2023-03-16T20:59:28.298Z,3.72
2023-03-16T21:01:56.609Z,4.03
2023-03-16T21:04:28.232Z,4.82
2023-03-16T21:06:58.077Z,3.97
2023-03-16T21:09:26.610Z,3.95
2023-03-16T21:11:54.850Z,3.85
2023-03-16T21:14:25.070Z,2.85
2023-03-16T21:16:59.623Z,3.83
2023-03-16T21:19:27.848Z,3.97
2023-03-16T21:21:57.444Z,3.17
2023-03-16T21:24:28.138Z,6.50
2023-03-16T21:26:57.116Z,5.35
2023-03-16T21:29:25.352Z,6.68
2023-03-16T21:31:53.649Z,5.13
2023-03-16T21:34:27.337Z,6.32
2023-03-16T21:36:56.947Z,4.72
2023-03-16T21:39:25.569Z,4.47
2023-03-16T21:41:54.087Z,3.45
2023-03-16T21:44:22.823Z,5.32
2023-03-16T21:46:51.388Z,3.67
2023-03-16T21:49:19.760Z,4.70
2023-03-16T21:51:49.777Z,4.60
2023-03-16T21:54:20.310Z,5.63
2023-03-16T21:56:48.939Z,3.53
2023-03-16T21:59:17.236Z,4.65
2023-03-16T22:02:00.863Z,4.40
2023-03-16T22:04:29.738Z,4.00
2023-03-16T22:06:57.980Z,3.95
2023-03-16T22:09:30.217Z,5.57
2023-03-16T22:11:58.727Z,5.32
2023-03-16T22:14:27.284Z,4.57
2023-03-16T22:16:55.870Z,4.43
2023-03-16T22:19:24.961Z,3.90
2023-03-16T22:21:53.502Z,3.28
2023-03-16T22:24:23.847Z,3.25
2023-03-16T22:26:53.788Z,7.15
2023-03-16T22:29:25.468Z,3.80
2023-03-16T22:31:59.455Z,7.28
2023-03-16T22:34:32.429Z,4.70
2023-03-16T22:37:02.333Z,8.07
2023-03-16T22:39:35.244Z,4.60
2023-03-16T22:42:05.343Z,6.68
2023-03-16T22:44:34.665Z,7.47
2023-03-16T22:47:07.474Z,6.03
2023-03-16T22:49:35.886Z,6.90
2023-03-16T22:52:04.208Z,7.15
2023-03-16T22:54:32.442Z,5.55
2023-03-16T22:57:00.965Z,7.10
2023-03-16T22:59:30.589Z,8.55
2023-03-16T23:01:58.844Z,6.80
2023-03-16T23:04:32.430Z,6.10
2023-03-16T23:07:03.761Z,8.90
2023-03-16T23:09:31.986Z,6.70
2023-03-16T23:12:03.251Z,7.05
2023-03-16T23:14:36.583Z,4.90
2023-03-16T23:17:04.837Z,7.35
2023-03-16T23:19:34.907Z,6.82
2023-03-16T23:22:05.082Z,7.80
2023-03-16T23:24:34.053Z,6.60
2023-03-16T23:27:02.894Z,8.75
2023-03-16T23:29:32.435Z,7.15
2023-03-16T23:32:01.253Z,8.27
2023-03-16T23:34:29.464Z,7.57
2023-03-16T23:36:57.688Z,5.63
2023-03-16T23:39:29.146Z,7.70
2023-03-16T23:41:57.495Z,8.88
2023-03-16T23:44:28.456Z,6.60
2023-03-16T23:46:58.236Z,7.15
2023-03-16T23:49:30.114Z,8.75
2023-03-16T23:52:00.672Z,5.78
2023-03-16T23:54:31.161Z,8.68
2023-03-16T23:56:59.667Z,6.07
2023-03-16T23:59:28.736Z,7.43
